Time;durP1;ratioP1;P1;durP2;ratioP2;P2;SDS_P1;SDS_P2;PMS_P1;PMS_P2;Temp;Humidity;BMP_temperature;BMP_pressure;BME280_temperature;BME280_humidity;BME280_pressure;Samples;Min_cycle;Max_cycle;Signal;HPM_P1;HPM_P2
2021/10/26 02:47:07;;;;;;;30.88;15.40;;;5.00;91.10;;;;;;4936812;24;20056;-79
2021/10/26 02:49:33;;;;;;;26.75;15.27;;;4.90;91.00;;;;;;4779459;29;20031;-77
2021/10/26 02:51:59;;;;;;;31.83;17.13;;;4.90;90.80;;;;;;4779495;29;20066;-77
2021/10/26 02:54:25;;;;;;;34.40;18.70;;;4.90;90.80;;;;;;4779531;29;20032;-77
2021/10/26 02:56:51;;;;;;;27.23;15.35;;;4.80;91.10;;;;;;4779403;29;20024;-77
2021/10/26 02:59:18;;;;;;;30.48;15.40;;;4.70;91.00;;;;;;4778660;29;20044;-77
2021/10/26 03:01:45;;;;;;;28.58;16.08;;;4.70;91.00;;;;;;4764627;30;20139;-77
2021/10/26 03:04:11;;;;;;;36.83;17.02;;;4.70;90.80;;;;;;4779545;29;20350;-77
2021/10/26 03:06:37;;;;;;;28.42;17.77;;;4.60;90.80;;;;;;4776994;29;20032;-79
2021/10/26 03:09:03;;;;;;;26.23;14.00;;;4.60;91.00;;;;;;4779032;29;20039;-79
2021/10/26 03:11:32;;;;;;;31.77;17.00;;;4.60;91.30;;;;;;4778854;29;20044;-77
2021/10/26 03:13:57;;;;;;;31.67;18.20;;;4.50;91.00;;;;;;4776419;29;20081;-77
2021/10/26 03:16:23;;;;;;;30.30;16.23;;;4.50;91.00;;;;;;4773600;30;20224;-77
2021/10/26 03:18:49;;;;;;;26.35;16.40;;;4.50;91.10;;;;;;4778885;29;20042;-77
2021/10/26 03:21:15;;;;;;;32.08;17.20;;;4.50;91.00;;;;;;4778761;29;20024;-79
2021/10/26 03:23:41;;;;;;;27.48;15.98;;;4.40;91.10;;;;;;4776006;29;20032;-77
2021/10/26 03:26:07;;;;;;;29.35;17.33;;;4.40;91.00;;;;;;4772779;30;20074;-77
2021/10/26 03:28:33;;;;;;;31.27;15.82;;;4.40;90.90;;;;;;4779145;29;20039;-77
2021/10/26 03:31:03;;;;;;;30.65;17.05;;;4.40;91.10;;;;;;4776111;30;20071;-78
2021/10/26 03:33:47;;;;;;;29.13;16.17;;;4.30;90.90;;;;;;4779234;30;20072;-77
2021/10/26 03:36:14;;;;;;;31.13;16.38;;;4.30;90.80;;;;;;4778914;29;20525;-78
2021/10/26 03:38:42;;;;;;;29.30;15.52;;;4.30;91.00;;;;;;4778761;29;20036;-78
2021/10/26 03:41:08;;;;;;;28.15;16.08;;;4.20;90.90;;;;;;4778914;29;20028;-78
2021/10/26 03:43:34;;;;;;;30.77;16.80;;;4.20;90.90;;;;;;4775996;29;20039;-78
2021/10/26 03:46:01;;;;;;;33.20;17.73;;;4.20;91.00;;;;;;4772061;30;20403;-78
2021/10/26 03:48:27;;;;;;;34.83;18.83;;;4.20;90.90;;;;;;4765424;30;20039;-78
2021/10/26 03:50:54;;;;;;;35.03;18.02;;;4.20;91.10;;;;;;4760793;30;20042;-78
2021/10/26 03:53:19;;;;;;;34.13;16.13;;;4.20;91.30;;;;;;4761116;30;20051;-78
2021/10/26 03:55:46;;;;;;;30.73;16.35;;;4.20;91.20;;;;;;4760988;30;20060;-77
2021/10/26 03:58:12;;;;;;;37.08;19.58;;;4.10;91.10;;;;;;4761091;30;20047;-79
2021/10/26 04:00:42;;;;;;;34.90;16.88;;;4.10;91.10;;;;;;4761035;30;20063;-79
2021/10/26 04:03:19;;;;;;;28.67;17.88;;;4.10;91.10;;;;;;4761024;30;20034;-79
2021/10/26 04:08:25;;;;;;;32.55;18.20;;;4.10;91.50;;;;;;4760921;30;20101;-79
2021/10/26 04:11:18;;;;;;;38.22;21.13;;;4.10;91.50;;;;;;4762009;30;20070;-79
2021/10/26 04:13:42;;;;;;;39.72;19.27;;;4.10;91.80;;;;;;4764646;30;20032;-79
2021/10/26 04:16:08;;;;;;;41.00;19.48;;;4.00;91.60;;;;;;4770704;30;20350;-79
2021/10/26 04:18:34;;;;;;;33.00;16.73;;;4.00;91.60;;;;;;4782229;30;20035;-79
2021/10/26 04:20:59;;;;;;;27.80;16.38;;;4.00;91.70;;;;;;4776404;30;20028;-79
2021/10/26 04:23:26;;;;;;;36.35;21.58;;;4.00;91.50;;;;;;4764584;30;20056;-79
2021/10/26 04:25:52;;;;;;;29.58;17.17;;;3.90;91.50;;;;;;4764393;30;20111;-79
2021/10/26 04:28:19;;;;;;;31.60;17.60;;;3.90;91.60;;;;;;4764283;30;20028;-79
2021/10/26 04:30:45;;;;;;;33.00;18.58;;;3.90;91.60;;;;;;4764373;30;20048;-79
2021/10/26 04:33:16;;;;;;;31.20;17.65;;;3.90;91.90;;;;;;4764641;30;20046;-79
2021/10/26 04:35:42;;;;;;;35.60;18.23;;;3.90;91.90;;;;;;4764452;30;20028;-79
2021/10/26 04:38:08;;;;;;;35.05;21.25;;;3.90;92.10;;;;;;4765178;30;20087;-79
2021/10/26 04:40:34;;;;;;;32.40;17.60;;;4.00;92.20;;;;;;4764044;30;20028;-79
2021/10/26 04:43:07;;;;;;;36.22;18.13;;;3.90;92.20;;;;;;4764084;30;20035;-79
2021/10/26 04:45:35;;;;;;;37.97;18.92;;;3.90;92.20;;;;;;4763862;30;20052;-79
2021/10/26 04:48:11;;;;;;;29.77;18.60;;;3.90;92.50;;;;;;4764383;30;20032;-79
2021/10/26 04:50:37;;;;;;;31.27;17.67;;;3.90;92.30;;;;;;4763973;30;20036;-79
2021/10/26 04:53:03;;;;;;;30.08;18.25;;;3.80;92.30;;;;;;4763885;30;20035;-79
2021/10/26 04:55:29;;;;;;;37.15;20.55;;;3.90;92.10;;;;;;4764039;30;20599;-79
2021/10/26 04:57:54;;;;;;;34.45;18.00;;;3.80;92.10;;;;;;4763727;30;20025;-79
2021/10/26 05:00:22;;;;;;;31.00;18.23;;;3.90;92.10;;;;;;4763569;30;20198;-79
2021/10/26 05:02:48;;;;;;;33.25;19.88;;;3.80;91.90;;;;;;4763484;30;20028;-79
2021/10/26 05:05:14;;;;;;;33.33;19.27;;;3.80;91.90;;;;;;4763749;30;20728;-79
2021/10/26 05:07:40;;;;;;;34.72;20.63;;;3.80;92.10;;;;;;4763777;30;20275;-79
2021/10/26 05:10:08;;;;;;;31.33;18.15;;;3.70;92.30;;;;;;4763626;30;20125;-79
2021/10/26 05:12:34;;;;;;;32.08;17.55;;;3.70;92.30;;;;;;4763692;30;20039;-79
2021/10/26 05:15:00;;;;;;;30.73;16.83;;;3.70;92.30;;;;;;4760824;30;20257;-79
2021/10/26 05:17:45;;;;;;;32.72;19.48;;;3.70;92.10;;;;;;4768092;30;20635;-79
2021/10/26 05:20:30;;;;;;;31.75;19.45;;;3.70;92.10;;;;;;4763872;30;20228;-79
2021/10/26 05:23:10;;;;;;;35.90;19.30;;;3.70;92.20;;;;;;4762940;30;20038;-77
2021/10/26 05:25:50;;;;;;;38.70;17.60;;;3.70;92.20;;;;;;4764780;30;20036;-77
2021/10/26 05:28:18;;;;;;;30.20;16.77;;;3.70;92.20;;;;;;4773836;30;20342;-77
2021/10/26 05:30:44;;;;;;;31.55;17.80;;;3.70;92.00;;;;;;4763170;30;20031;-77
2021/10/26 05:33:10;;;;;;;36.13;20.15;;;3.70;92.00;;;;;;4763323;30;20032;-77
2021/10/26 05:35:36;;;;;;;34.22;19.08;;;3.70;92.20;;;;;;4763072;30;20050;-78
2021/10/26 05:38:02;;;;;;;53.80;25.90;;;3.60;92.40;;;;;;4763094;30;20040;-77
2021/10/26 05:40:28;;;;;;;44.08;20.67;;;3.60;93.10;;;;;;4763029;30;20043;-77
2021/10/26 05:42:54;;;;;;;43.90;25.48;;;3.60;93.40;;;;;;4762861;30;20115;-77
2021/10/26 05:45:20;;;;;;;37.00;22.45;;;3.60;94.20;;;;;;4762434;30;20040;-77
2021/10/26 05:47:46;;;;;;;39.70;22.85;;;3.70;94.30;;;;;;4767680;30;20046;-78
2021/10/26 05:50:12;;;;;;;40.47;23.58;;;3.70;95.10;;;;;;4762252;30;20051;-78
2021/10/26 05:52:38;;;;;;;40.35;21.30;;;3.80;94.90;;;;;;4762224;30;20159;-78
2021/10/26 05:55:05;;;;;;;40.08;23.35;;;3.90;94.70;;;;;;4762230;30;20271;-78
2021/10/26 05:57:33;;;;;;;45.47;25.58;;;3.90;94.40;;;;;;4762134;30;20043;-78
2021/10/26 05:59:59;;;;;;;36.58;19.25;;;4.00;94.60;;;;;;4776663;29;20039;-78
2021/10/26 06:02:25;;;;;;;41.75;22.92;;;4.00;94.70;;;;;;4762059;30;20187;-78
2021/10/26 06:04:52;;;;;;;37.30;19.95;;;4.10;94.30;;;;;;4761979;30;20024;-78
2021/10/26 06:07:18;;;;;;;37.70;21.83;;;4.10;94.10;;;;;;4765145;30;20070;-78
2021/10/26 06:09:44;;;;;;;36.67;20.27;;;4.20;94.10;;;;;;4761172;30;20093;-78
2021/10/26 06:12:16;;;;;;;38.28;21.42;;;4.20;93.90;;;;;;4758164;30;20052;-78
2021/10/26 06:14:44;;;;;;;36.08;20.05;;;4.20;93.90;;;;;;4781209;30;20029;-78
2021/10/26 06:17:11;;;;;;;39.15;22.95;;;4.30;94.00;;;;;;4757420;30;20035;-78
2021/10/26 06:19:37;;;;;;;39.45;19.65;;;4.30;94.10;;;;;;4756368;30;20032;-78
2021/10/26 06:22:03;;;;;;;42.17;24.50;;;4.40;94.00;;;;;;4753847;30;20040;-78
2021/10/26 06:24:30;;;;;;;41.20;22.70;;;4.50;94.80;;;;;;4770866;30;20107;-78
2021/10/26 06:26:56;;;;;;;45.88;25.58;;;4.60;95.00;;;;;;4767562;30;20066;-78
2021/10/26 06:29:22;;;;;;;50.75;27.63;;;4.70;94.90;;;;;;4769095;29;20040;-78
2021/10/26 06:32:13;;;;;;;36.13;20.10;;;4.80;94.70;;;;;;4753485;30;20032;-78
2021/10/26 06:34:39;;;;;;;41.85;24.42;;;4.90;94.80;;;;;;4753485;30;20067;-78
2021/10/26 06:37:06;;;;;;;40.38;24.08;;;5.00;94.60;;;;;;4756080;30;20374;-78
2021/10/26 06:39:32;;;;;;;40.20;24.17;;;5.10;94.80;;;;;;4765110;30;20040;-78
2021/10/26 06:41:59;;;;;;;49.00;25.83;;;5.20;95.10;;;;;;4756913;30;20028;-78
2021/10/26 06:44:43;;;;;;;41.15;25.63;;;5.30;95.40;;;;;;4754662;30;20049;-78
2021/10/26 06:47:27;;;;;;;48.03;24.67;;;5.40;95.70;;;;;;4755856;30;20054;-79
2021/10/26 06:50:12;;;;;;;48.00;26.88;;;5.50;95.60;;;;;;4754846;30;20043;-79
2021/10/26 06:52:56;;;;;;;47.20;24.98;;;5.70;95.50;;;;;;4754824;30;20039;-80
2021/10/26 06:55:43;;;;;;;57.90;28.10;;;5.80;95.40;;;;;;4754235;30;20176;-79
2021/10/26 06:58:27;;;;;;;68.97;36.70;;;5.90;95.10;;;;;;4751636;30;20151;-79
2021/10/26 07:01:16;;;;;;;57.53;30.77;;;6.00;95.00;;;;;;4742354;30;20273;-79
2021/10/26 07:03:56;;;;;;;51.55;28.05;;;6.10;95.10;;;;;;4745556;30;20248;-79
2021/10/26 07:06:48;;;;;;;38.92;23.08;;;6.20;95.40;;;;;;4685699;30;20084;-80
2021/10/26 07:09:39;;;;;;;41.72;22.65;;;6.40;95.20;;;;;;4675192;30;20118;-79
2021/10/26 07:12:13;;;;;;;35.30;21.42;;;6.50;95.30;;;;;;4669327;30;20121;-79
2021/10/26 07:14:39;;;;;;;35.63;20.88;;;6.60;94.80;;;;;;4668419;30;20045;-80
2021/10/26 07:17:06;;;;;;;37.80;22.17;;;6.70;94.80;;;;;;4667722;30;20369;-79
2021/10/26 07:19:32;;;;;;;37.75;20.08;;;6.80;94.70;;;;;;4670205;30;20051;-79
2021/10/26 07:22:19;;;;;;;40.55;21.48;;;6.90;94.60;;;;;;4722429;30;20364;-77
2021/10/26 07:25:24;;;;;;;31.35;19.40;;;7.10;94.60;;;;;;4721114;30;20041;-79
2021/10/26 07:27:58;;;;;;;40.28;21.90;;;7.30;94.20;;;;;;4722795;30;20270;-79
2021/10/26 07:30:32;;;;;;;33.00;19.80;;;7.40;93.80;;;;;;4721589;30;20045;-78
2021/10/26 07:33:00;;;;;;;35.15;21.20;;;7.50;93.60;;;;;;4706412;30;20067;-79
2021/10/26 07:35:33;;;;;;;31.55;18.42;;;7.60;93.40;;;;;;4720019;30;20355;-79
2021/10/26 07:37:59;;;;;;;34.25;19.70;;;7.70;93.10;;;;;;4725269;30;20047;-78
2021/10/26 07:40:25;;;;;;;35.55;21.10;;;7.80;92.90;;;;;;4745499;30;20141;-78
2021/10/26 07:43:09;;;;;;;31.95;19.38;;;7.90;93.00;;;;;;4731647;30;20051;-79
2021/10/26 07:46:03;;;;;;;33.97;18.73;;;8.10;92.90;;;;;;4751979;30;20148;-79
2021/10/26 07:48:30;;;;;;;36.25;18.05;;;8.20;92.60;;;;;;4736277;30;20103;-76
2021/10/26 07:51:00;;;;;;;32.38;17.65;;;8.40;92.50;;;;;;4753706;30;20043;-79
2021/10/26 07:53:27;;;;;;;25.60;15.65;;;8.50;92.20;;;;;;4740766;30;20036;-79
2021/10/26 07:56:02;;;;;;;30.83;18.25;;;8.60;91.60;;;;;;4736910;30;20040;-78
2021/10/26 07:58:28;;;;;;;33.83;17.88;;;8.70;91.60;;;;;;4742665;30;20040;-78
2021/10/26 08:00:54;;;;;;;35.33;19.17;;;8.80;91.40;;;;;;4756187;30;20230;-78
2021/10/26 08:03:46;;;;;;;32.42;17.10;;;8.90;91.50;;;;;;4758801;30;20050;-78
2021/10/26 08:06:12;;;;;;;149.85;23.88;;;9.00;90.80;;;;;;4759137;30;20024;-77
2021/10/26 08:08:39;;;;;;;55.03;18.90;;;9.20;90.60;;;;;;4757143;30;20110;-77
2021/10/26 08:11:07;;;;;;;35.83;17.73;;;9.40;90.30;;;;;;4759531;30;20038;-77
2021/10/26 08:13:35;;;;;;;;;;;9.50;89.60;;;;;;4759552;30;20045;-77
2021/10/26 08:16:01;;;;;;;30.35;17.70;;;9.60;89.10;;;;;;4773831;30;19932;-77
2021/10/26 08:18:28;;;;;;;31.40;17.20;;;9.70;88.70;;;;;;4759024;30;20056;-77
2021/10/26 08:20:54;;;;;;;31.02;17.02;;;9.90;88.00;;;;;;4759550;30;20103;-77
2021/10/26 08:23:21;;;;;;;29.88;16.70;;;10.00;87.60;;;;;;4759643;30;20354;-77
2021/10/26 08:25:53;;;;;;;32.08;16.40;;;10.00;86.40;;;;;;4759605;30;20036;-77
2021/10/26 08:28:22;;;;;;;28.10;15.55;;;10.20;86.30;;;;;;4761250;30;20024;-77
2021/10/26 08:30:52;;;;;;;28.23;15.40;;;10.30;86.10;;;;;;4759365;30;20304;-77
2021/10/26 08:35:56;;;;;;;28.15;15.23;;;10.60;84.40;;;;;;4759518;30;20028;-76
2021/10/26 08:38:22;;;;;;;25.58;15.60;;;10.70;83.60;;;;;;4759344;30;20040;-77
2021/10/26 08:41:09;;;;;;;31.75;16.55;;;10.90;83.50;;;;;;4794432;30;20034;-78
2021/10/26 08:43:35;;;;;;;;;;;10.90;82.00;;;;;;4794837;29;20039;-78
2021/10/26 08:46:08;;;;;;;25.60;14.73;;;11.00;81.40;;;;;;4794076;29;19917;-79
2021/10/26 08:48:40;;;;;;;28.58;14.38;;;11.10;82.50;;;;;;4778046;30;20039;-77
2021/10/26 08:51:26;;;;;;;28.35;16.75;;;11.30;81.50;;;;;;4754138;30;20115;-78
2021/10/26 08:53:55;;;;;;;26.73;15.80;;;11.40;80.70;;;;;;4767197;30;20039;-77
2021/10/26 08:56:49;;;;;;;32.78;17.20;;;11.60;80.00;;;;;;4764371;30;20048;-77
2021/10/26 08:59:49;;;;;;;32.33;17.85;;;11.60;78.90;;;;;;4710178;30;20038;-79
2021/10/26 09:02:15;;;;;;;29.77;16.33;;;11.60;78.50;;;;;;4712710;30;20245;-79
2021/10/26 09:04:45;;;;;;;26.48;16.42;;;11.60;78.80;;;;;;4681439;30;20101;-78
2021/10/26 09:07:20;;;;;;;28.30;17.48;;;11.70;78.50;;;;;;4695296;30;20033;-80
2021/10/26 09:09:48;;;;;;;26.30;16.15;;;11.90;78.40;;;;;;4681329;30;20174;-78
2021/10/26 09:18:26;;;;;;;25.52;16.00;;;12.60;76.00;;;;;;4673811;30;20144;-79
2021/10/26 09:20:55;;;;;;;31.65;16.42;;;12.70;75.30;;;;;;4682765;30;20102;-80
2021/10/26 09:23:30;;;;;;;25.13;15.73;;;12.70;74.80;;;;;;4678385;30;20040;-77
2021/10/26 09:25:58;;;;;;;27.40;17.33;;;12.60;75.20;;;;;;4661835;30;20043;-78
2021/10/26 09:28:25;;;;;;;32.15;16.85;;;12.70;75.40;;;;;;4674731;30;20114;-79
2021/10/26 09:31:01;;;;;;;26.90;17.33;;;12.80;74.40;;;;;;4673777;30;20047;-79
2021/10/26 09:33:33;;;;;;;33.85;17.77;;;12.80;74.10;;;;;;4675003;30;20342;-79
2021/10/26 09:36:21;;;;;;;26.48;17.77;;;12.80;74.20;;;;;;4713159;30;20037;-79
2021/10/26 09:38:54;;;;;;;33.53;17.77;;;13.00;73.20;;;;;;4724497;30;20060;-79
2021/10/26 09:41:20;;;;;;;27.45;17.58;;;13.00;73.40;;;;;;4723207;30;20085;-79
2021/10/26 09:43:46;;;;;;;34.33;18.02;;;13.20;73.20;;;;;;4724994;30;20056;-79
2021/10/26 09:46:12;;;;;;;28.88;17.25;;;13.40;72.50;;;;;;4725852;30;20120;-79
2021/10/26 09:48:38;;;;;;;23.67;16.25;;;13.40;71.80;;;;;;4725049;30;20060;-79
2021/10/26 09:51:09;;;;;;;27.13;16.70;;;13.50;71.70;;;;;;4745474;30;20128;-79
2021/10/26 09:53:36;;;;;;;26.67;18.15;;;13.60;72.30;;;;;;4759436;30;20072;-79
2021/10/26 09:56:10;;;;;;;32.20;17.77;;;13.70;71.30;;;;;;4762016;30;20151;-79
2021/10/26 09:58:36;;;;;;;29.80;16.70;;;13.80;70.90;;;;;;4761286;30;20055;-78
2021/10/26 10:01:27;;;;;;;29.75;17.05;;;14.00;71.40;;;;;;4759970;30;20027;-79
2021/10/26 10:04:03;;;;;;;25.40;17.02;;;14.20;69.80;;;;;;4761435;30;20038;-79
2021/10/26 10:06:47;;;;;;;22.63;16.10;;;14.30;70.70;;;;;;4761835;30;20028;-79
2021/10/26 10:09:26;;;;;;;31.42;17.77;;;14.40;70.00;;;;;;4761907;30;20040;-79
2021/10/26 10:12:06;;;;;;;29.30;18.38;;;14.40;69.40;;;;;;4761784;30;20040;-79
2021/10/26 10:14:41;;;;;;;30.63;18.00;;;14.50;69.10;;;;;;4746924;30;20262;-80
2021/10/26 10:17:12;;;;;;;28.35;17.27;;;14.50;69.70;;;;;;4760432;30;20063;-79
2021/10/26 10:19:40;;;;;;;25.42;16.75;;;14.60;70.00;;;;;;4758676;30;20036;-79
2021/10/26 10:22:06;;;;;;;;;;;14.80;68.70;;;;;;4760329;30;20062;-78
2021/10/26 10:24:38;;;;;;;27.48;15.60;;;14.80;67.60;;;;;;4761897;30;19977;-77
2021/10/26 10:27:05;;;;;;;27.58;15.50;;;14.70;69.30;;;;;;4759660;30;20035;-79
2021/10/26 10:29:32;;;;;;;23.88;15.00;;;14.60;69.00;;;;;;4762707;30;20036;-78
2021/10/26 10:31:58;;;;;;;24.08;15.40;;;14.60;69.10;;;;;;4759108;30;20052;-79
2021/10/26 10:34:24;;;;;;;24.55;13.95;;;14.60;69.70;;;;;;4764867;29;20110;-78
2021/10/26 10:36:52;;;;;;;19.63;13.10;;;14.70;70.20;;;;;;4760429;30;20213;-80
2021/10/26 10:39:27;;;;;;;23.40;13.95;;;14.80;69.90;;;;;;4760460;30;20047;-80
2021/10/26 10:42:11;;;;;;;27.13;14.30;;;14.80;69.50;;;;;;4761474;30;20044;-79
2021/10/26 10:44:39;;;;;;;30.92;14.18;;;14.80;69.00;;;;;;4763487;30;20046;-78
2021/10/26 10:47:09;;;;;;;23.25;14.45;;;14.90;69.40;;;;;;4762539;30;20285;-78
2021/10/26 10:49:35;;;;;;;28.00;15.38;;;14.90;69.00;;;;;;4740764;30;20244;-79
2021/10/26 10:52:10;;;;;;;27.92;14.65;;;14.80;68.70;;;;;;4773458;30;20482;-79
2021/10/26 10:54:39;;;;;;;39.70;15.38;;;14.80;70.20;;;;;;4773536;30;20047;-79
2021/10/26 10:57:17;;;;;;;26.67;15.75;;;14.90;69.90;;;;;;4764804;30;20039;-79
2021/10/26 10:59:51;;;;;;;27.35;16.65;;;15.00;68.70;;;;;;4776967;30;20036;-79
2021/10/26 11:02:35;;;;;;;29.67;16.20;;;14.90;68.30;;;;;;4763115;30;20036;-79
2021/10/26 11:05:03;;;;;;;25.73;15.20;;;14.80;69.30;;;;;;4775109;30;20375;-79
2021/10/26 11:07:44;;;;;;;26.67;14.88;;;15.00;69.30;;;;;;4760440;30;20335;-79
2021/10/26 11:10:13;;;;;;;25.75;13.60;;;14.90;68.70;;;;;;4764046;30;20042;-79
2021/10/26 11:12:42;;;;;;;25.95;13.30;;;15.00;69.00;;;;;;4759240;30;20066;-80
2021/10/26 11:15:16;;;;;;;24.10;14.80;;;15.10;69.20;;;;;;4756111;30;20035;-79
2021/10/26 11:17:42;;;;;;;23.17;14.27;;;15.20;68.90;;;;;;4764749;30;20044;-79
2021/10/26 11:20:29;;;;;;;23.02;14.40;;;15.30;67.90;;;;;;4758531;30;20606;-79
2021/10/26 11:23:04;;;;;;;20.58;13.25;;;15.30;67.50;;;;;;4757944;30;20055;-79
2021/10/26 11:25:35;;;;;;;20.88;13.63;;;15.10;67.80;;;;;;4758821;30;20036;-79
2021/10/26 11:28:15;;;;;;;22.40;14.60;;;15.10;69.00;;;;;;4759286;30;20072;-79
2021/10/26 11:30:47;;;;;;;26.30;13.88;;;15.00;68.20;;;;;;4766935;30;20150;-80
2021/10/26 11:33:23;;;;;;;20.38;13.00;;;15.00;68.90;;;;;;4758465;30;20028;-80
2021/10/26 11:36:04;;;;;;;22.45;13.23;;;15.00;68.50;;;;;;4759336;30;20040;-80
2021/10/26 11:38:43;;;;;;;26.50;13.73;;;15.00;68.50;;;;;;4758678;30;20363;-79
2021/10/26 11:41:16;;;;;;;20.67;14.45;;;14.90;68.80;;;;;;4743167;30;20096;-79
2021/10/26 11:43:50;;;;;;;22.33;14.27;;;14.90;69.40;;;;;;4756975;30;20054;-79
2021/10/26 11:46:31;;;;;;;26.25;14.18;;;14.90;69.00;;;;;;4763124;30;20139;-79
2021/10/26 11:49:03;;;;;;;24.15;15.07;;;15.20;69.50;;;;;;4780324;29;20032;-78
2021/10/26 11:51:40;;;;;;;23.63;13.75;;;15.20;68.60;;;;;;4761195;30;20228;-79
2021/10/26 11:54:20;;;;;;;19.88;13.40;;;15.20;68.20;;;;;;4761866;30;20036;-80
2021/10/26 11:56:47;;;;;;;26.35;13.90;;;15.20;68.60;;;;;;4759369;30;20078;-80
2021/10/26 11:59:16;;;;;;;21.52;13.05;;;15.30;68.30;;;;;;4775992;30;20036;-80
2021/10/26 12:02:14;;;;;;;20.63;13.50;;;15.40;68.20;;;;;;4792543;29;20047;-79
2021/10/26 12:04:55;;;;;;;17.75;12.70;;;15.30;68.10;;;;;;4791510;29;20039;-79
2021/10/26 12:07:26;;;;;;;20.38;13.88;;;15.40;68.10;;;;;;4786725;30;20281;-79
2021/10/26 12:09:54;;;;;;;26.33;13.43;;;15.30;68.80;;;;;;4792309;29;20042;-79
2021/10/26 12:12:31;;;;;;;18.60;11.88;;;15.30;68.60;;;;;;4780582;30;20031;-79
2021/10/26 12:15:02;;;;;;;21.33;13.27;;;15.30;68.70;;;;;;4793314;30;20034;-80
2021/10/26 12:17:30;;;;;;;25.23;13.75;;;15.30;69.00;;;;;;4792824;30;20039;-80
2021/10/26 12:20:26;;;;;;;25.75;13.80;;;15.40;69.00;;;;;;4793524;29;20053;-80
2021/10/26 12:23:05;;;;;;;23.20;13.65;;;15.40;69.20;;;;;;4792537;30;20327;-80
2021/10/26 12:25:47;;;;;;;23.75;13.23;;;15.30;68.90;;;;;;4793092;30;20039;-80
2021/10/26 12:28:13;;;;;;;23.48;13.68;;;15.40;69.30;;;;;;4793882;29;20091;-80
2021/10/26 12:30:46;;;;;;;21.05;13.73;;;15.40;69.70;;;;;;4792789;29;20039;-80
2021/10/26 12:33:24;;;;;;;23.55;14.57;;;15.50;69.50;;;;;;4796011;29;20046;-80
2021/10/26 12:35:55;;;;;;;20.88;14.23;;;15.50;69.20;;;;;;4781813;30;20054;-80
2021/10/26 12:38:35;;;;;;;23.55;14.68;;;15.50;69.30;;;;;;4789020;30;20267;-80
2021/10/26 12:41:12;;;;;;;24.23;14.98;;;15.50;68.80;;;;;;4762089;30;20036;-80
2021/10/26 12:43:38;;;;;;;24.30;15.80;;;15.60;69.70;;;;;;4760835;30;20035;-80
2021/10/26 12:46:15;;;;;;;20.95;14.88;;;15.50;68.60;;;;;;4761513;30;20056;-81
2021/10/26 12:48:41;;;;;;;20.95;14.15;;;15.60;69.50;;;;;;4761639;30;20039;-80
2021/10/26 12:51:09;;;;;;;24.70;15.00;;;15.70;69.10;;;;;;4761797;30;20306;-79
2021/10/26 12:53:42;;;;;;;23.95;14.52;;;15.80;68.80;;;;;;4761892;30;20040;-80
2021/10/26 12:56:31;;;;;;;27.70;15.25;;;15.70;68.40;;;;;;4762450;30;20028;-80
2021/10/26 12:59:06;;;;;;;22.67;15.23;;;15.80;68.10;;;;;;4750361;30;20063;-79
2021/10/26 13:01:38;;;;;;;23.73;14.13;;;15.70;67.90;;;;;;4777056;30;20069;-80
2021/10/26 13:04:18;;;;;;;24.98;14.15;;;15.70;68.50;;;;;;4780151;30;20103;-79
2021/10/26 13:06:50;;;;;;;28.30;15.95;;;15.60;69.00;;;;;;4760840;30;20036;-80
2021/10/26 13:09:52;;;;;;;21.52;13.18;;;15.70;69.00;;;;;;4760703;30;20255;-80
2021/10/26 13:12:30;;;;;;;23.10;13.95;;;15.70;67.90;;;;;;4778969;30;20055;-80
2021/10/26 13:15:05;;;;;;;22.02;13.63;;;15.60;67.50;;;;;;4778942;30;20126;-80
2021/10/26 13:17:36;;;;;;;25.65;14.50;;;15.50;67.20;;;;;;4778673;30;20051;-79
2021/10/26 13:20:45;;;;;;;29.23;13.90;;;15.50;67.40;;;;;;4763543;30;20043;-79
2021/10/26 13:23:31;;;;;;;25.73;14.48;;;15.40;67.80;;;;;;4777099;30;20236;-79
2021/10/26 13:26:01;;;;;;;22.47;13.53;;;15.50;68.60;;;;;;4763978;30;20039;-79
2021/10/26 13:28:32;;;;;;;25.25;13.90;;;15.40;67.40;;;;;;4779173;30;20036;-79
2021/10/26 13:31:06;;;;;;;22.73;12.88;;;15.30;68.30;;;;;;4763782;30;20043;-80
2021/10/26 13:33:36;;;;;;;24.35;13.73;;;15.20;68.20;;;;;;4763309;30;20251;-80
2021/10/26 13:36:04;;;;;;;23.92;14.20;;;15.20;68.70;;;;;;4778568;30;20340;-80
2021/10/26 13:38:31;;;;;;;21.35;12.82;;;15.10;68.50;;;;;;4766209;30;20031;-80
2021/10/26 13:40:57;;;;;;;20.90;12.98;;;15.10;68.90;;;;;;4778963;30;20120;-80
2021/10/26 13:43:25;;;;;;;30.63;14.70;;;15.10;69.00;;;;;;4778239;30;20042;-80
2021/10/26 13:45:52;;;;;;;30.63;15.20;;;15.10;68.70;;;;;;4762978;30;20130;-79
2021/10/26 13:48:19;;;;;;;20.75;14.00;;;15.10;68.70;;;;;;4775182;30;20243;-80
2021/10/26 13:50:49;;;;;;;27.25;15.57;;;15.10;69.30;;;;;;4759492;30;20040;-80
2021/10/26 13:53:15;;;;;;;27.13;15.00;;;15.10;69.30;;;;;;4716982;29;20070;-80
2021/10/26 13:55:42;;;;;;;25.63;15.18;;;15.00;69.70;;;;;;4733416;30;20048;-80
2021/10/26 13:58:08;;;;;;;27.95;15.45;;;15.10;69.40;;;;;;4592579;30;20427;-80
2021/10/26 14:00:38;;;;;;;25.15;13.90;;;15.00;69.70;;;;;;4572766;30;20047;-80
2021/10/26 14:03:07;;;;;;;24.55;14.43;;;15.10;69.90;;;;;;4680960;30;20114;-80
2021/10/26 14:05:33;;;;;;;24.85;14.95;;;15.20;69.70;;;;;;4755934;30;20308;-80
2021/10/26 14:07:59;;;;;;;26.13;14.85;;;15.20;69.30;;;;;;4759710;30;20033;-80
2021/10/26 14:10:26;;;;;;;25.48;15.77;;;15.30;69.00;;;;;;4765496;30;20255;-80
2021/10/26 14:12:52;;;;;;;25.83;15.48;;;15.30;69.10;;;;;;4759385;30;20240;-80
2021/10/26 14:15:19;;;;;;;25.92;15.23;;;15.20;68.70;;;;;;4751391;30;20048;-79
2021/10/26 14:17:45;;;;;;;27.70;15.00;;;15.20;69.30;;;;;;4762217;30;20099;-79
2021/10/26 14:20:23;;;;;;;22.25;14.63;;;15.30;69.20;;;;;;4686830;30;20048;-81
2021/10/26 14:22:51;;;;;;;28.15;15.02;;;15.30;68.80;;;;;;4555883;30;20391;-80
2021/10/26 14:25:24;;;;;;;25.58;15.13;;;15.30;68.80;;;;;;4495383;30;20629;-80
2021/10/26 14:27:56;;;;;;;30.10;16.42;;;15.30;69.00;;;;;;4454195;30;21092;-81
2021/10/26 14:30:22;;;;;;;26.02;15.68;;;15.30;69.10;;;;;;4519967;30;20036;-80
2021/10/26 14:32:49;;;;;;;27.07;16.43;;;15.30;69.00;;;;;;4596043;30;20606;-80
2021/10/26 14:35:26;;;;;;;25.88;16.35;;;15.30;69.40;;;;;;4500597;30;21034;-80
2021/10/26 14:38:00;;;;;;;27.02;15.93;;;15.40;69.10;;;;;;4468199;30;20638;-79
2021/10/26 14:56:10;;;;;;;24.75;12.50;;;14.70;68.40;;;;;;4776832;29;20039;-80
2021/10/26 14:58:40;;;;;;;24.88;13.70;;;14.60;68.70;;;;;;4759519;30;20286;-80
2021/10/26 15:01:07;;;;;;;26.75;13.05;;;14.50;69.30;;;;;;4762431;30;20055;-80
2021/10/26 15:03:36;;;;;;;23.40;12.60;;;14.50;69.40;;;;;;4758174;30;20222;-80
2021/10/26 15:06:04;;;;;;;20.38;11.18;;;14.40;68.90;;;;;;4761232;30;20036;-79
2021/10/26 15:08:33;;;;;;;20.83;11.45;;;14.40;69.40;;;;;;4761835;30;20093;-80
2021/10/26 15:11:11;;;;;;;28.08;12.88;;;14.30;69.50;;;;;;4759367;30;20043;-81
2021/10/26 15:13:59;;;;;;;19.50;10.88;;;14.20;69.60;;;;;;4773759;30;20035;-80
2021/10/26 15:16:24;;;;;;;20.63;11.50;;;14.10;69.80;;;;;;4759246;30;20024;-80
2021/10/26 15:18:51;;;;;;;24.83;11.45;;;14.10;70.00;;;;;;4760299;30;20071;-80
2021/10/26 15:21:29;;;;;;;21.52;11.50;;;14.00;70.30;;;;;;4761662;30;20098;-80
2021/10/26 15:34:52;;;;;;;22.83;11.18;;;13.60;71.20;;;;;;4810773;29;20054;-80
2021/10/26 15:37:18;;;;;;;18.75;9.80;;;13.50;71.40;;;;;;4812770;29;20305;-79
2021/10/26 15:39:46;;;;;;;16.15;9.05;;;13.40;71.50;;;;;;4813019;29;20282;-79
2021/10/26 15:42:13;;;;;;;17.85;7.68;;;13.30;71.40;;;;;;4812450;29;20362;-79
2021/10/26 15:44:43;;;;;;;18.17;9.45;;;13.20;70.90;;;;;;4812390;29;20034;-79
2021/10/26 15:47:13;;;;;;;21.30;8.10;;;13.00;70.70;;;;;;4808869;29;20047;-79
2021/10/26 15:49:39;;;;;;;18.45;8.43;;;12.90;71.20;;;;;;4812638;29;20057;-80
2021/10/26 15:52:06;;;;;;;14.48;8.45;;;12.90;71.20;;;;;;4812661;29;20046;-79
2021/10/26 15:54:33;;;;;;;20.25;8.35;;;12.80;71.60;;;;;;4795497;29;20259;-79
2021/10/26 15:57:00;;;;;;;16.77;8.48;;;12.80;72.10;;;;;;4774945;29;20089;-79
2021/10/26 15:59:27;;;;;;;13.90;8.20;;;12.70;72.50;;;;;;4772810;30;20043;-79
2021/10/26 16:01:55;;;;;;;14.00;7.90;;;12.60;72.90;;;;;;4774669;29;20055;-80
2021/10/26 16:04:23;;;;;;;19.45;8.10;;;12.50;73.10;;;;;;4760959;29;20032;-79
2021/10/26 16:06:50;;;;;;;18.55;9.70;;;12.40;73.40;;;;;;4777464;29;20103;-80
2021/10/26 16:09:18;;;;;;;21.73;9.65;;;12.30;73.60;;;;;;4779619;30;20051;-80
2021/10/26 16:11:52;;;;;;;18.92;9.68;;;12.20;74.00;;;;;;4765063;30;20036;-79
2021/10/26 16:14:18;;;;;;;16.75;9.90;;;12.10;74.40;;;;;;4764013;29;20035;-79
2021/10/26 16:16:44;;;;;;;15.57;8.77;;;12.00;75.30;;;;;;4764950;30;20059;-79
2021/10/26 16:19:11;;;;;;;18.55;9.95;;;11.90;75.70;;;;;;4780407;29;20044;-79